sensor_id;sensor_type;location;lat;lon;timestamp;temperature;humidity
58153;DHT22;43967;51.634;5.566;2023-12-04T00:03:43;17.10;49.50
58153;DHT22;43967;51.634;5.566;2023-12-04T00:09:04;17.10;49.60
58153;DHT22;43967;51.634;5.566;2023-12-04T00:14:26;17.10;49.60
58153;DHT22;43967;51.634;5.566;2023-12-04T00:19:47;17.10;49.50
58153;DHT22;43967;51.634;5.566;2023-12-04T00:25:09;17.10;49.40
58153;DHT22;43967;51.634;5.566;2023-12-04T00:30:31;17.10;49.30
58153;DHT22;43967;51.634;5.566;2023-12-04T00:35:52;17.10;49.20
58153;DHT22;43967;51.634;5.566;2023-12-04T00:41:13;17.10;49.20
58153;DHT22;43967;51.634;5.566;2023-12-04T00:46:35;17.10;49.00
58153;DHT22;43967;51.634;5.566;2023-12-04T00:51:56;17.10;48.90
58153;DHT22;43967;51.634;5.566;2023-12-04T00:57:17;17.10;48.70
58153;DHT22;43967;51.634;5.566;2023-12-04T01:02:39;17.10;48.60
58153;DHT22;43967;51.634;5.566;2023-12-04T01:08:01;17.10;48.60
58153;DHT22;43967;51.634;5.566;2023-12-04T01:13:22;17.10;48.60
58153;DHT22;43967;51.634;5.566;2023-12-04T01:18:43;17.10;48.70
58153;DHT22;43967;51.634;5.566;2023-12-04T01:24:05;17.10;48.80
58153;DHT22;43967;51.634;5.566;2023-12-04T01:29:26;17.00;48.90
58153;DHT22;43967;51.634;5.566;2023-12-04T01:34:47;17.10;49.00
58153;DHT22;43967;51.634;5.566;2023-12-04T01:40:09;17.10;49.10
58153;DHT22;43967;51.634;5.566;2023-12-04T01:45:30;17.00;49.10
58153;DHT22;43967;51.634;5.566;2023-12-04T01:50:52;17.10;49.30
58153;DHT22;43967;51.634;5.566;2023-12-04T01:56:15;17.00;49.20
58153;DHT22;43967;51.634;5.566;2023-12-04T02:01:37;17.00;49.40
58153;DHT22;43967;51.634;5.566;2023-12-04T02:06:58;17.00;49.30
58153;DHT22;43967;51.634;5.566;2023-12-04T02:12:20;17.10;49.40
58153;DHT22;43967;51.634;5.566;2023-12-04T02:17:44;17.10;49.30
58153;DHT22;43967;51.634;5.566;2023-12-04T02:23:06;17.10;49.80
58153;DHT22;43967;51.634;5.566;2023-12-04T02:28:31;17.10;49.10
58153;DHT22;43967;51.634;5.566;2023-12-04T02:33:55;17.10;48.90
58153;DHT22;43967;51.634;5.566;2023-12-04T02:39:18;17.10;48.90
58153;DHT22;43967;51.634;5.566;2023-12-04T02:44:40;17.10;48.80
58153;DHT22;43967;51.634;5.566;2023-12-04T02:50:01;17.10;48.70
58153;DHT22;43967;51.634;5.566;2023-12-04T02:55:22;17.00;48.50
58153;DHT22;43967;51.634;5.566;2023-12-04T03:00:45;17.00;48.50
58153;DHT22;43967;51.634;5.566;2023-12-04T03:06:06;17.10;48.60
58153;DHT22;43967;51.634;5.566;2023-12-04T03:11:28;17.10;48.60
58153;DHT22;43967;51.634;5.566;2023-12-04T03:16:50;17.10;48.80
58153;DHT22;43967;51.634;5.566;2023-12-04T03:22:12;17.00;48.90
58153;DHT22;43967;51.634;5.566;2023-12-04T03:27:33;17.10;49.10
58153;DHT22;43967;51.634;5.566;2023-12-04T03:32:54;17.00;49.10
58153;DHT22;43967;51.634;5.566;2023-12-04T03:38:16;17.00;49.20
58153;DHT22;43967;51.634;5.566;2023-12-04T03:43:37;17.00;49.30
58153;DHT22;43967;51.634;5.566;2023-12-04T03:49:00;17.00;49.40
58153;DHT22;43967;51.634;5.566;2023-12-04T03:54:22;17.10;49.40
58153;DHT22;43967;51.634;5.566;2023-12-04T03:59:45;17.00;50.00
58153;DHT22;43967;51.634;5.566;2023-12-04T04:05:06;17.00;49.20
58153;DHT22;43967;51.634;5.566;2023-12-04T04:10:28;17.10;49.20
58153;DHT22;43967;51.634;5.566;2023-12-04T04:15:49;17.10;49.10
58153;DHT22;43967;51.634;5.566;2023-12-04T04:21:10;17.10;49.00
58153;DHT22;43967;51.634;5.566;2023-12-04T04:26:31;17.00;48.90
58153;DHT22;43967;51.634;5.566;2023-12-04T04:31:54;17.00;48.70
58153;DHT22;43967;51.634;5.566;2023-12-04T04:37:15;17.10;48.80
58153;DHT22;43967;51.634;5.566;2023-12-04T04:42:36;17.00;48.60
58153;DHT22;43967;51.634;5.566;2023-12-04T04:47:58;17.00;48.60
58153;DHT22;43967;51.634;5.566;2023-12-04T04:53:19;17.00;48.60
58153;DHT22;43967;51.634;5.566;2023-12-04T04:58:40;17.00;48.70
58153;DHT22;43967;51.634;5.566;2023-12-04T05:04:03;17.00;48.80
58153;DHT22;43967;51.634;5.566;2023-12-04T05:09:26;17.00;49.00
58153;DHT22;43967;51.634;5.566;2023-12-04T05:14:47;17.00;49.00
58153;DHT22;43967;51.634;5.566;2023-12-04T05:20:10;17.00;49.10
58153;DHT22;43967;51.634;5.566;2023-12-04T05:25:32;17.00;49.20
58153;DHT22;43967;51.634;5.566;2023-12-04T05:30:53;17.00;49.30
58153;DHT22;43967;51.634;5.566;2023-12-04T05:36:15;17.00;49.30
58153;DHT22;43967;51.634;5.566;2023-12-04T05:41:36;17.00;49.40
58153;DHT22;43967;51.634;5.566;2023-12-04T05:46:59;17.00;49.40
58153;DHT22;43967;51.634;5.566;2023-12-04T05:52:20;17.00;49.30
58153;DHT22;43967;51.634;5.566;2023-12-04T05:57:42;17.00;49.20
58153;DHT22;43967;51.634;5.566;2023-12-04T06:03:04;17.00;49.20
58153;DHT22;43967;51.634;5.566;2023-12-04T06:08:25;17.00;49.10
58153;DHT22;43967;51.634;5.566;2023-12-04T06:13:46;17.00;49.00
58153;DHT22;43967;51.634;5.566;2023-12-04T06:19:08;17.00;48.90
58153;DHT22;43967;51.634;5.566;2023-12-04T06:24:30;17.00;48.60
58153;DHT22;43967;51.634;5.566;2023-12-04T06:29:52;17.00;48.50
58153;DHT22;43967;51.634;5.566;2023-12-04T06:35:14;17.00;48.50
58153;DHT22;43967;51.634;5.566;2023-12-04T06:40:35;17.00;48.50
58153;DHT22;43967;51.634;5.566;2023-12-04T06:45:57;17.00;48.50
58153;DHT22;43967;51.634;5.566;2023-12-04T06:51:19;17.00;48.60
58153;DHT22;43967;51.634;5.566;2023-12-04T06:56:40;16.90;48.60
58153;DHT22;43967;51.634;5.566;2023-12-04T07:02:01;17.00;48.80
58153;DHT22;43967;51.634;5.566;2023-12-04T07:07:23;17.00;49.00
58153;DHT22;43967;51.634;5.566;2023-12-04T07:12:44;16.90;48.90
58153;DHT22;43967;51.634;5.566;2023-12-04T07:18:06;17.00;49.10
58153;DHT22;43967;51.634;5.566;2023-12-04T07:23:27;16.90;49.10
58153;DHT22;43967;51.634;5.566;2023-12-04T07:28:49;17.00;49.20
58153;DHT22;43967;51.634;5.566;2023-12-04T07:34:12;17.00;49.30
58153;DHT22;43967;51.634;5.566;2023-12-04T07:39:33;17.00;49.10
58153;DHT22;43967;51.634;5.566;2023-12-04T07:44:54;17.00;49.40
58153;DHT22;43967;51.634;5.566;2023-12-04T07:50:16;17.00;48.90
58153;DHT22;43967;51.634;5.566;2023-12-04T07:55:37;17.00;48.80
58153;DHT22;43967;51.634;5.566;2023-12-04T08:00:59;17.00;48.60
58153;DHT22;43967;51.634;5.566;2023-12-04T08:06:20;17.00;48.50
58153;DHT22;43967;51.634;5.566;2023-12-04T08:11:41;17.00;48.40
58153;DHT22;43967;51.634;5.566;2023-12-04T08:17:02;17.00;48.10
58153;DHT22;43967;51.634;5.566;2023-12-04T08:22:24;17.00;48.00
58153;DHT22;43967;51.634;5.566;2023-12-04T08:27:45;17.00;47.90
58153;DHT22;43967;51.634;5.566;2023-12-04T08:33:06;17.00;47.90
58153;DHT22;43967;51.634;5.566;2023-12-04T08:38:27;17.00;47.90
58153;DHT22;43967;51.634;5.566;2023-12-04T08:43:49;17.00;48.00
58153;DHT22;43967;51.634;5.566;2023-12-04T08:49:10;17.00;48.10
58153;DHT22;43967;51.634;5.566;2023-12-04T08:54:31;17.00;48.20
58153;DHT22;43967;51.634;5.566;2023-12-04T08:59:52;17.00;48.30
58153;DHT22;43967;51.634;5.566;2023-12-04T09:05:14;17.00;48.50
58153;DHT22;43967;51.634;5.566;2023-12-04T09:10:35;16.90;48.50
58153;DHT22;43967;51.634;5.566;2023-12-04T09:15:56;17.00;48.60
58153;DHT22;43967;51.634;5.566;2023-12-04T09:21:18;17.00;48.90
58153;DHT22;43967;51.634;5.566;2023-12-04T09:26:39;17.00;49.30
58153;DHT22;43967;51.634;5.566;2023-12-04T09:32:00;17.00;49.40
58153;DHT22;43967;51.634;5.566;2023-12-04T09:37:21;17.00;49.40
58153;DHT22;43967;51.634;5.566;2023-12-04T09:42:43;17.00;49.50
58153;DHT22;43967;51.634;5.566;2023-12-04T09:48:05;17.00;49.50
58153;DHT22;43967;51.634;5.566;2023-12-04T09:53:30;17.00;49.50
58153;DHT22;43967;51.634;5.566;2023-12-04T09:58:58;17.00;49.60
58153;DHT22;43967;51.634;5.566;2023-12-04T10:04:22;17.00;49.60
58153;DHT22;43967;51.634;5.566;2023-12-04T10:09:43;17.00;49.80
58153;DHT22;43967;51.634;5.566;2023-12-04T10:15:09;17.00;49.70
58153;DHT22;43967;51.634;5.566;2023-12-04T10:20:31;17.00;49.20
58153;DHT22;43967;51.634;5.566;2023-12-04T10:25:52;17.00;50.50
58153;DHT22;43967;51.634;5.566;2023-12-04T10:31:13;17.00;52.50
58153;DHT22;43967;51.634;5.566;2023-12-04T10:36:38;17.00;53.60
58153;DHT22;43967;51.634;5.566;2023-12-04T10:42:03;17.00;53.60
58153;DHT22;43967;51.634;5.566;2023-12-04T10:47:25;17.10;53.70
58153;DHT22;43967;51.634;5.566;2023-12-04T10:52:47;17.00;53.40
58153;DHT22;43967;51.634;5.566;2023-12-04T10:58:13;17.00;53.00
58153;DHT22;43967;51.634;5.566;2023-12-04T11:03:48;17.00;52.80
58153;DHT22;43967;51.634;5.566;2023-12-04T11:09:12;17.00;52.40
58153;DHT22;43967;51.634;5.566;2023-12-04T11:14:39;17.00;52.10
58153;DHT22;43967;51.634;5.566;2023-12-04T11:20:16;17.00;51.90
58153;DHT22;43967;51.634;5.566;2023-12-04T11:25:39;17.00;51.70
58153;DHT22;43967;51.634;5.566;2023-12-04T11:31:01;17.00;51.60
58153;DHT22;43967;51.634;5.566;2023-12-04T11:36:25;17.00;51.70
58153;DHT22;43967;51.634;5.566;2023-12-04T11:41:46;17.00;51.80
58153;DHT22;43967;51.634;5.566;2023-12-04T11:47:07;17.00;51.70
58153;DHT22;43967;51.634;5.566;2023-12-04T11:52:34;17.00;51.70
58153;DHT22;43967;51.634;5.566;2023-12-04T11:58:09;17.00;51.70
58153;DHT22;43967;51.634;5.566;2023-12-04T12:03:30;17.00;51.70
58153;DHT22;43967;51.634;5.566;2023-12-04T12:08:55;17.00;51.70
58153;DHT22;43967;51.634;5.566;2023-12-04T12:14:22;17.00;51.70
58153;DHT22;43967;51.634;5.566;2023-12-04T12:19:44;17.00;51.60
58153;DHT22;43967;51.634;5.566;2023-12-04T12:25:07;17.00;51.50
58153;DHT22;43967;51.634;5.566;2023-12-04T12:30:29;17.00;51.40
58153;DHT22;43967;51.634;5.566;2023-12-04T12:35:50;17.00;51.20
58153;DHT22;43967;51.634;5.566;2023-12-04T12:41:12;17.00;51.10
58153;DHT22;43967;51.634;5.566;2023-12-04T12:46:34;17.00;51.00
58153;DHT22;43967;51.634;5.566;2023-12-04T12:52:00;17.00;50.80
58153;DHT22;43967;51.634;5.566;2023-12-04T12:57:21;17.00;50.70
58153;DHT22;43967;51.634;5.566;2023-12-04T13:02:44;17.00;50.50
58153;DHT22;43967;51.634;5.566;2023-12-04T13:08:05;17.10;50.40
58153;DHT22;43967;51.634;5.566;2023-12-04T13:13:27;17.00;50.30
58153;DHT22;43967;51.634;5.566;2023-12-04T13:18:48;17.00;50.20
58153;DHT22;43967;51.634;5.566;2023-12-04T13:24:10;17.00;50.20
58153;DHT22;43967;51.634;5.566;2023-12-04T13:29:31;17.00;50.10
58153;DHT22;43967;51.634;5.566;2023-12-04T13:34:53;17.00;50.00
58153;DHT22;43967;51.634;5.566;2023-12-04T13:40:14;17.00;50.00
58153;DHT22;43967;51.634;5.566;2023-12-04T13:45:36;17.00;50.10
58153;DHT22;43967;51.634;5.566;2023-12-04T13:50:57;17.00;50.20
58153;DHT22;43967;51.634;5.566;2023-12-04T13:56:18;17.00;50.20
58153;DHT22;43967;51.634;5.566;2023-12-04T14:01:40;17.00;50.30
58153;DHT22;43967;51.634;5.566;2023-12-04T14:07:01;16.90;50.40
58153;DHT22;43967;51.634;5.566;2023-12-04T14:12:22;17.00;50.50
58153;DHT22;43967;51.634;5.566;2023-12-04T14:17:44;17.00;50.60
58153;DHT22;43967;51.634;5.566;2023-12-04T14:23:05;17.00;50.60
58153;DHT22;43967;51.634;5.566;2023-12-04T14:28:27;17.00;50.70
58153;DHT22;43967;51.634;5.566;2023-12-04T14:33:48;17.00;50.70
58153;DHT22;43967;51.634;5.566;2023-12-04T14:39:09;17.00;50.80
58153;DHT22;43967;51.634;5.566;2023-12-04T14:44:31;17.00;50.70
58153;DHT22;43967;51.634;5.566;2023-12-04T14:49:52;17.00;50.60
58153;DHT22;43967;51.634;5.566;2023-12-04T14:55:13;17.10;50.50
58153;DHT22;43967;51.634;5.566;2023-12-04T15:00:34;17.10;50.30
58153;DHT22;43967;51.634;5.566;2023-12-04T15:05:56;17.00;50.10
58153;DHT22;43967;51.634;5.566;2023-12-04T15:11:17;17.10;50.00
58153;DHT22;43967;51.634;5.566;2023-12-04T15:16:38;17.00;49.80
58153;DHT22;43967;51.634;5.566;2023-12-04T15:22:00;17.00;49.70
58153;DHT22;43967;51.634;5.566;2023-12-04T15:27:21;17.10;49.60
58153;DHT22;43967;51.634;5.566;2023-12-04T15:32:44;17.10;49.50
58153;DHT22;43967;51.634;5.566;2023-12-04T15:38:05;17.00;49.40
58153;DHT22;43967;51.634;5.566;2023-12-04T15:43:26;17.00;50.50
58153;DHT22;43967;51.634;5.566;2023-12-04T15:48:48;17.10;51.80
58153;DHT22;43967;51.634;5.566;2023-12-04T15:54:09;17.10;52.10
58153;DHT22;43967;51.634;5.566;2023-12-04T15:59:30;17.20;52.50
58153;DHT22;43967;51.634;5.566;2023-12-04T16:04:52;17.20;52.40
58153;DHT22;43967;51.634;5.566;2023-12-04T16:10:13;17.20;52.30
58153;DHT22;43967;51.634;5.566;2023-12-04T16:15:34;17.20;52.40
58153;DHT22;43967;51.634;5.566;2023-12-04T16:20:56;17.20;53.00
58153;DHT22;43967;51.634;5.566;2023-12-04T16:26:18;17.30;53.10
58153;DHT22;43967;51.634;5.566;2023-12-04T16:31:39;17.40;53.90
58153;DHT22;43967;51.634;5.566;2023-12-04T16:37:01;17.40;54.70
58153;DHT22;43967;51.634;5.566;2023-12-04T16:42:22;17.40;53.90
58153;DHT22;43967;51.634;5.566;2023-12-04T16:47:43;17.40;53.60
58153;DHT22;43967;51.634;5.566;2023-12-04T16:53:05;17.40;52.80
58153;DHT22;43967;51.634;5.566;2023-12-04T16:58:26;17.40;52.20
58153;DHT22;43967;51.634;5.566;2023-12-04T17:03:47;17.30;52.00
58153;DHT22;43967;51.634;5.566;2023-12-04T17:09:08;17.30;51.90
58153;DHT22;43967;51.634;5.566;2023-12-04T17:14:30;17.20;51.80
58153;DHT22;43967;51.634;5.566;2023-12-04T17:19:51;17.20;51.70
58153;DHT22;43967;51.634;5.566;2023-12-04T17:25:12;17.20;51.70
58153;DHT22;43967;51.634;5.566;2023-12-04T17:30:34;17.20;51.50
58153;DHT22;43967;51.634;5.566;2023-12-04T17:35:55;17.20;51.60
58153;DHT22;43967;51.634;5.566;2023-12-04T17:41:16;17.20;52.10
58153;DHT22;43967;51.634;5.566;2023-12-04T17:46:37;17.20;52.00
58153;DHT22;43967;51.634;5.566;2023-12-04T17:51:59;17.10;52.30
58153;DHT22;43967;51.634;5.566;2023-12-04T17:57:20;17.20;52.40
58153;DHT22;43967;51.634;5.566;2023-12-04T18:02:43;17.20;52.50
58153;DHT22;43967;51.634;5.566;2023-12-04T18:08:04;17.20;52.40
58153;DHT22;43967;51.634;5.566;2023-12-04T18:13:25;17.10;52.40
58153;DHT22;43967;51.634;5.566;2023-12-04T18:18:47;17.20;52.30
58153;DHT22;43967;51.634;5.566;2023-12-04T18:24:08;17.20;52.30
58153;DHT22;43967;51.634;5.566;2023-12-04T18:29:29;17.20;52.30
58153;DHT22;43967;51.634;5.566;2023-12-04T18:34:51;17.20;52.20
58153;DHT22;43967;51.634;5.566;2023-12-04T18:40:12;17.20;52.40
58153;DHT22;43967;51.634;5.566;2023-12-04T18:45:34;17.20;52.20
58153;DHT22;43967;51.634;5.566;2023-12-04T18:50:55;17.20;52.10
58153;DHT22;43967;51.634;5.566;2023-12-04T18:56:17;17.20;51.80
58153;DHT22;43967;51.634;5.566;2023-12-04T19:01:38;17.20;51.60
58153;DHT22;43967;51.634;5.566;2023-12-04T19:07:00;17.20;51.40
58153;DHT22;43967;51.634;5.566;2023-12-04T19:12:21;17.20;51.10
58153;DHT22;43967;51.634;5.566;2023-12-04T19:17:42;17.20;51.00
58153;DHT22;43967;51.634;5.566;2023-12-04T19:23:04;17.20;50.90
58153;DHT22;43967;51.634;5.566;2023-12-04T19:28:25;17.20;50.70
58153;DHT22;43967;51.634;5.566;2023-12-04T19:33:46;17.20;50.60
58153;DHT22;43967;51.634;5.566;2023-12-04T19:39:08;17.20;50.50
58153;DHT22;43967;51.634;5.566;2023-12-04T19:44:29;17.20;50.50
58153;DHT22;43967;51.634;5.566;2023-12-04T19:49:50;17.20;50.30
58153;DHT22;43967;51.634;5.566;2023-12-04T19:55:11;17.20;50.40
58153;DHT22;43967;51.634;5.566;2023-12-04T20:00:34;17.20;50.50
58153;DHT22;43967;51.634;5.566;2023-12-04T20:05:55;17.20;50.50
58153;DHT22;43967;51.634;5.566;2023-12-04T20:11:16;17.20;50.40
58153;DHT22;43967;51.634;5.566;2023-12-04T20:16:37;17.20;50.30
58153;DHT22;43967;51.634;5.566;2023-12-04T20:21:59;17.30;50.40
58153;DHT22;43967;51.634;5.566;2023-12-04T20:27:20;17.30;50.20
58153;DHT22;43967;51.634;5.566;2023-12-04T20:32:43;17.30;50.20
58153;DHT22;43967;51.634;5.566;2023-12-04T20:38:04;17.30;50.10
58153;DHT22;43967;51.634;5.566;2023-12-04T20:43:25;17.30;49.90
58153;DHT22;43967;51.634;5.566;2023-12-04T20:48:46;17.30;49.80
58153;DHT22;43967;51.634;5.566;2023-12-04T20:54:08;17.30;49.80
58153;DHT22;43967;51.634;5.566;2023-12-04T20:59:29;17.30;49.60
58153;DHT22;43967;51.634;5.566;2023-12-04T21:04:50;17.30;49.50
58153;DHT22;43967;51.634;5.566;2023-12-04T21:10:11;17.30;49.50
58153;DHT22;43967;51.634;5.566;2023-12-04T21:15:33;17.30;49.40
58153;DHT22;43967;51.634;5.566;2023-12-04T21:20:54;17.20;49.20
58153;DHT22;43967;51.634;5.566;2023-12-04T21:26:15;17.20;49.10
58153;DHT22;43967;51.634;5.566;2023-12-04T21:31:37;17.30;49.20
58153;DHT22;43967;51.634;5.566;2023-12-04T21:36:58;17.20;49.20
58153;DHT22;43967;51.634;5.566;2023-12-04T21:42:19;17.20;49.20
58153;DHT22;43967;51.634;5.566;2023-12-04T21:47:41;17.20;49.30
58153;DHT22;43967;51.634;5.566;2023-12-04T21:53:02;17.20;49.40
58153;DHT22;43967;51.634;5.566;2023-12-04T21:58:26;17.20;49.60
58153;DHT22;43967;51.634;5.566;2023-12-04T22:03:47;17.20;49.70
58153;DHT22;43967;51.634;5.566;2023-12-04T22:09:09;17.20;49.80
58153;DHT22;43967;51.634;5.566;2023-12-04T22:14:30;17.20;49.90
58153;DHT22;43967;51.634;5.566;2023-12-04T22:19:52;17.20;50.10
58153;DHT22;43967;51.634;5.566;2023-12-04T22:25:13;17.20;50.10
58153;DHT22;43967;51.634;5.566;2023-12-04T22:30:34;17.20;50.80
58153;DHT22;43967;51.634;5.566;2023-12-04T22:35:56;17.20;50.00
58153;DHT22;43967;51.634;5.566;2023-12-04T22:41:17;17.20;50.00
58153;DHT22;43967;51.634;5.566;2023-12-04T22:46:38;17.20;49.80
58153;DHT22;43967;51.634;5.566;2023-12-04T22:51:59;17.20;49.70
58153;DHT22;43967;51.634;5.566;2023-12-04T22:57:21;17.30;49.70
58153;DHT22;43967;51.634;5.566;2023-12-04T23:02:42;17.30;49.60
58153;DHT22;43967;51.634;5.566;2023-12-04T23:08:03;17.30;49.50
58153;DHT22;43967;51.634;5.566;2023-12-04T23:13:25;17.30;49.40
58153;DHT22;43967;51.634;5.566;2023-12-04T23:18:46;17.20;49.40
58153;DHT22;43967;51.634;5.566;2023-12-04T23:24:07;17.20;49.40
58153;DHT22;43967;51.634;5.566;2023-12-04T23:29:29;17.20;49.40
58153;DHT22;43967;51.634;5.566;2023-12-04T23:34:50;17.20;49.40
58153;DHT22;43967;51.634;5.566;2023-12-04T23:40:11;17.20;49.50
58153;DHT22;43967;51.634;5.566;2023-12-04T23:45:32;17.20;49.70
58153;DHT22;43967;51.634;5.566;2023-12-04T23:50:54;17.20;49.80
58153;DHT22;43967;51.634;5.566;2023-12-04T23:56:15;17.20;50.00
